Time;durP1;ratioP1;P1;durP2;ratioP2;P2;SDS_P1;SDS_P2;PMS_P1;PMS_P2;Temp;Humidity;BMP_temperature;BMP_pressure;BME280_temperature;BME280_humidity;BME280_pressure;Samples;Min_cycle;Max_cycle;Signal;HPM_P1;HPM_P2
2021/11/02 00:00:31;;;;;;;0.30;0.30;;;7.10;99.90;;;;;;5015285;28;20487;-89
2021/11/02 00:02:57;;;;;;;0.30;0.20;;;7.10;99.90;;;;;;5015531;28;20472;-89
2021/11/02 00:05:24;;;;;;;0.30;0.30;;;7.10;99.90;;;;;;5015417;28;20447;-89
2021/11/02 00:07:51;;;;;;;0.30;0.30;;;7.20;99.90;;;;;;5015557;28;20440;-88
2021/11/02 00:10:18;;;;;;;0.40;0.30;;;7.30;99.90;;;;;;5015234;28;20486;-88
2021/11/02 00:12:45;;;;;;;1.07;1.07;;;7.20;99.90;;;;;;5015386;28;20472;-88
2021/11/02 00:15:13;;;;;;;0.30;0.20;;;7.20;99.90;;;;;;5015231;28;20440;-89
2021/11/02 00:17:41;;;;;;;0.30;0.30;;;7.20;99.90;;;;;;5015535;28;20450;-89
2021/11/02 00:20:14;;;;;;;0.30;0.27;;;7.10;99.90;;;;;;5015540;28;20451;-89
2021/11/02 00:22:41;;;;;;;0.30;0.30;;;7.10;99.90;;;;;;5015356;28;20494;-88
2021/11/02 00:25:11;;;;;;;0.30;0.30;;;7.00;99.90;;;;;;5015080;28;20440;-88
2021/11/02 00:27:39;;;;;;;0.40;0.40;;;7.00;99.90;;;;;;5015303;28;20451;-89
2021/11/02 00:30:09;;;;;;;0.30;0.30;;;7.00;99.90;;;;;;5015177;28;20486;-89
2021/11/02 00:32:37;;;;;;;0.30;0.20;;;6.90;99.90;;;;;;5015007;28;20471;-89
2021/11/02 00:35:05;;;;;;;0.40;0.30;;;6.90;99.90;;;;;;5016675;28;20939;-89
2021/11/02 00:37:32;;;;;;;0.30;0.30;;;7.00;99.90;;;;;;5021005;28;20966;-89
2021/11/02 00:40:00;;;;;;;0.30;0.20;;;7.00;99.90;;;;;;5019384;28;20455;-89
2021/11/02 00:42:32;;;;;;;0.30;0.30;;;7.00;99.90;;;;;;5015458;28;20827;-89
2021/11/02 00:45:02;;;;;;;0.50;0.50;;;7.00;99.90;;;;;;5014943;28;20443;-89
2021/11/02 00:47:29;;;;;;;0.30;0.30;;;7.10;99.90;;;;;;5015340;28;20950;-89
2021/11/02 00:49:57;;;;;;;0.53;0.50;;;7.10;99.90;;;;;;5015588;28;20493;-89
2021/11/02 00:52:24;;;;;;;0.30;0.20;;;7.10;99.90;;;;;;5014750;28;20471;-87
2021/11/02 00:54:51;;;;;;;0.30;0.30;;;7.20;99.90;;;;;;5014594;28;20455;-89
2021/11/02 00:57:17;;;;;;;0.30;0.30;;;7.20;99.90;;;;;;5014540;28;20832;-89
2021/11/02 00:59:44;;;;;;;0.73;0.57;;;7.30;99.90;;;;;;5014452;28;20479;-89
2021/11/02 01:02:11;;;;;;;0.40;0.30;;;7.30;99.90;;;;;;5014663;28;20521;-88
2021/11/02 01:04:38;;;;;;;0.30;0.20;;;7.30;99.90;;;;;;5013653;28;20526;-89
2021/11/02 01:07:07;;;;;;;0.40;0.30;;;7.30;99.90;;;;;;5014615;28;20459;-89
2021/11/02 01:09:34;;;;;;;0.30;0.20;;;7.30;99.90;;;;;;5014725;28;20482;-88
2021/11/02 01:12:01;;;;;;;0.30;0.20;;;7.30;99.90;;;;;;5014662;28;20453;-88
2021/11/02 01:14:27;;;;;;;0.57;0.50;;;7.40;99.90;;;;;;5014880;28;20967;-89
2021/11/02 01:16:54;;;;;;;0.40;0.30;;;7.40;99.90;;;;;;5014782;28;20444;-89
2021/11/02 01:19:21;;;;;;;0.30;0.30;;;7.40;99.90;;;;;;5014862;28;20432;-89
2021/11/02 01:21:48;;;;;;;0.30;0.30;;;7.50;99.90;;;;;;5014736;28;20451;-89
2021/11/02 01:24:16;;;;;;;0.30;0.20;;;7.50;99.90;;;;;;5014466;28;20436;-89
2021/11/02 01:26:43;;;;;;;0.47;0.40;;;7.40;99.90;;;;;;5014379;28;20466;-90
2021/11/02 01:29:10;;;;;;;2.83;0.43;;;7.40;99.90;;;;;;5014414;28;20439;-90
2021/11/02 01:31:37;;;;;;;0.30;0.20;;;7.40;99.90;;;;;;5014531;28;20447;-89
2021/11/02 01:34:04;;;;;;;0.30;0.20;;;7.40;99.90;;;;;;5014003;28;20513;-89
2021/11/02 01:36:31;;;;;;;1.57;0.30;;;7.40;99.90;;;;;;5014380;28;20451;-87
2021/11/02 01:38:58;;;;;;;0.30;0.20;;;7.50;99.90;;;;;;5013695;28;20819;-86
2021/11/02 01:41:28;;;;;;;1.40;1.33;;;7.50;99.90;;;;;;5013609;28;20966;-86
2021/11/02 01:43:56;;;;;;;0.30;0.30;;;7.40;99.90;;;;;;5013599;28;20472;-86
2021/11/02 01:46:25;;;;;;;0.40;0.30;;;7.40;99.90;;;;;;5013841;28;20447;-87
2021/11/02 01:48:53;;;;;;;0.37;0.33;;;7.30;99.90;;;;;;5013938;28;20451;-88
2021/11/02 01:51:21;;;;;;;0.30;0.30;;;7.30;99.90;;;;;;5013948;28;20574;-88
2021/11/02 01:53:48;;;;;;;0.30;0.30;;;7.20;99.90;;;;;;5013723;28;20843;-88
2021/11/02 01:56:17;;;;;;;0.67;0.67;;;7.10;99.90;;;;;;5013635;28;20451;-88
2021/11/02 01:58:46;;;;;;;0.30;0.20;;;7.00;99.90;;;;;;5013633;28;20563;-88
2021/11/02 02:01:21;;;;;;;0.40;0.40;;;7.00;99.90;;;;;;5013919;28;20444;-88
2021/11/02 02:03:55;;;;;;;0.30;0.30;;;7.00;99.90;;;;;;5013883;28;20823;-88
2021/11/02 02:06:35;;;;;;;0.30;0.30;;;7.00;99.90;;;;;;5013969;28;20435;-88
2021/11/02 02:09:08;;;;;;;0.40;0.40;;;7.00;99.90;;;;;;5013981;28;20438;-88
2021/11/02 02:11:44;;;;;;;0.30;0.30;;;6.90;99.90;;;;;;5014352;28;20436;-88
2021/11/02 02:14:17;;;;;;;0.30;0.30;;;6.90;99.90;;;;;;5013745;28;20452;-89
2021/11/02 02:16:46;;;;;;;0.50;0.40;;;6.80;99.90;;;;;;5016829;28;20931;-89
2021/11/02 02:19:42;;;;;;;0.30;0.30;;;6.70;99.90;;;;;;5017471;28;20478;-89
2021/11/02 02:22:23;;;;;;;0.30;0.30;;;6.60;99.90;;;;;;5015532;28;20466;-89
2021/11/02 02:25:06;;;;;;;0.30;0.20;;;6.60;99.90;;;;;;5017578;28;20427;-90
2021/11/02 02:27:41;;;;;;;0.30;0.30;;;6.60;99.90;;;;;;5017413;28;20425;-89
2021/11/02 02:30:13;;;;;;;4.43;0.50;;;6.50;99.90;;;;;;5017480;28;20467;-90
2021/11/02 02:32:45;;;;;;;0.30;0.30;;;6.50;99.90;;;;;;5017300;28;20479;-90
2021/11/02 02:35:18;;;;;;;0.30;0.30;;;6.40;99.90;;;;;;5017279;28;20420;-90
2021/11/02 02:37:47;;;;;;;0.30;0.30;;;6.40;99.90;;;;;;5017318;28;20511;-89
2021/11/02 02:40:14;;;;;;;0.30;0.20;;;6.50;99.90;;;;;;5017032;28;20502;-88
2021/11/02 02:42:45;;;;;;;0.30;0.20;;;6.50;99.90;;;;;;5016436;28;20459;-87
2021/11/02 02:45:14;;;;;;;0.30;0.30;;;6.50;99.90;;;;;;5017071;28;20897;-88
2021/11/02 02:47:43;;;;;;;0.30;0.20;;;6.50;99.90;;;;;;5018273;28;20820;-88
2021/11/02 02:50:11;;;;;;;0.30;0.23;;;6.50;99.90;;;;;;5025556;28;20491;-89
2021/11/02 02:52:40;;;;;;;0.30;0.20;;;6.40;99.90;;;;;;5020825;28;20835;-89
2021/11/02 02:55:09;;;;;;;0.30;0.27;;;6.30;99.90;;;;;;5017698;28;20941;-89
2021/11/02 02:57:36;;;;;;;0.30;0.20;;;6.20;99.90;;;;;;5016940;28;20466;-90
2021/11/02 03:00:05;;;;;;;0.30;0.30;;;6.20;99.90;;;;;;5016556;28;20479;-90
2021/11/02 03:02:35;;;;;;;0.30;0.20;;;6.20;99.90;;;;;;5016694;28;20475;-89
2021/11/02 03:05:07;;;;;;;0.30;0.20;;;6.10;99.90;;;;;;5016574;28;20448;-88
2021/11/02 03:07:35;;;;;;;0.30;0.20;;;6.00;99.90;;;;;;5016298;28;20440;-88
2021/11/02 03:10:02;;;;;;;0.30;0.27;;;6.00;99.90;;;;;;5016497;28;20586;-88
2021/11/02 03:12:33;;;;;;;0.40;0.40;;;6.00;99.90;;;;;;5016605;28;20471;-89
2021/11/02 03:15:18;;;;;;;0.30;0.20;;;6.10;99.90;;;;;;5016714;28;20435;-89
2021/11/02 03:17:53;;;;;;;0.30;0.20;;;6.10;99.90;;;;;;5016271;28;20440;-89
2021/11/02 03:20:49;;;;;;;0.30;0.30;;;6.10;99.90;;;;;;5016890;28;20435;-89
2021/11/02 03:48:22;;;;;;;0.30;0.30;;;5.90;99.90;;;;;;4984468;28;20450;-83
2021/11/02 03:51:04;;;;;;;0.30;0.30;;;5.90;99.90;;;;;;5015274;28;20463;-83
2021/11/02 03:56:28;;;;;;;0.30;0.20;;;5.90;99.90;;;;;;5014994;28;21031;-83
2021/11/02 03:59:16;;;;;;;0.47;0.47;;;5.90;99.90;;;;;;5014541;28;20545;-83
2021/11/02 04:01:57;;;;;;;0.33;0.27;;;5.90;99.90;;;;;;5014755;28;20440;-83
2021/11/02 05:08:32;;;;;;;0.30;0.30;;;5.70;99.90;;;;;;5013872;28;20443;-83
2021/11/02 05:47:17;;;;;;;0.30;0.30;;;5.50;99.90;;;;;;4972627;28;20432;-84
2021/11/02 05:49:57;;;;;;;0.30;0.20;;;5.50;99.90;;;;;;5006668;28;20475;-84
2021/11/02 05:52:48;;;;;;;0.30;0.30;;;5.50;99.90;;;;;;5017673;28;20478;-84
2021/11/02 05:58:05;;;;;;;0.30;0.20;;;5.40;99.90;;;;;;4986790;28;20868;-85
2021/11/02 06:00:36;;;;;;;0.30;0.30;;;5.40;99.90;;;;;;5016783;28;20471;-84
2021/11/02 06:03:22;;;;;;;0.57;0.30;;;5.40;99.90;;;;;;5017004;28;20482;-84
2021/11/02 06:05:56;;;;;;;0.30;0.20;;;5.40;99.90;;;;;;5018878;28;20439;-84
2021/11/02 06:08:37;;;;;;;0.40;0.30;;;5.40;99.90;;;;;;5016875;28;20475;-84
2021/11/02 06:27:59;;;;;;;0.30;0.30;;;5.50;99.90;;;;;;5016556;28;20430;-84
2021/11/02 06:30:31;;;;;;;0.30;0.20;;;5.50;99.90;;;;;;5016476;28;20466;-84
2021/11/02 06:33:06;;;;;;;0.30;0.30;;;5.50;99.90;;;;;;5016122;28;20546;-84
2021/11/02 06:35:38;;;;;;;0.30;0.23;;;5.60;99.90;;;;;;5016660;28;20427;-84
2021/11/02 06:43:57;;;;;;;0.30;0.20;;;5.50;99.90;;;;;;5017115;28;20455;-84
2021/11/02 06:46:54;;;;;;;0.30;0.20;;;5.50;99.90;;;;;;5016278;28;20551;-84
2021/11/02 06:49:51;;;;;;;0.30;0.30;;;5.60;99.90;;;;;;5016392;28;20439;-84
2021/11/02 06:55:37;;;;;;;0.30;0.30;;;5.60;99.90;;;;;;5016112;28;20447;-84
2021/11/02 06:58:34;;;;;;;0.30;0.20;;;5.60;99.90;;;;;;5015658;28;20458;-84
2021/11/02 07:18:02;;;;;;;0.40;0.30;;;6.00;99.90;;;;;;4935995;29;20482;-84
2021/11/02 07:20:36;;;;;;;0.30;0.20;;;6.10;99.90;;;;;;4935924;29;20923;-84
2021/11/02 07:23:16;;;;;;;0.30;0.20;;;6.10;99.90;;;;;;4979201;28;20487;-84
2021/11/02 07:25:54;;;;;;;0.30;0.30;;;6.20;99.90;;;;;;5015434;28;20933;-84
2021/11/02 08:46:59;;;;;;;0.30;0.20;;;8.50;99.90;;;;;;5014068;28;20434;-86
2021/11/02 08:49:28;;;;;;;0.97;0.70;;;8.40;99.90;;;;;;5015113;28;20447;-86
2021/11/02 08:51:56;;;;;;;0.30;0.30;;;8.30;99.90;;;;;;5014027;28;20490;-87
2021/11/02 08:54:24;;;;;;;1.77;1.10;;;8.10;99.90;;;;;;5014032;28;20424;-87
2021/11/02 08:56:53;;;;;;;0.30;0.20;;;8.10;99.90;;;;;;5014187;28;20505;-87
2021/11/02 08:59:20;;;;;;;0.30;0.20;;;8.10;99.90;;;;;;5013823;28;20483;-87
2021/11/02 09:01:52;;;;;;;0.30;0.30;;;8.00;99.90;;;;;;5014118;28;20452;-86
2021/11/02 09:04:20;;;;;;;0.30;0.20;;;7.90;99.90;;;;;;5014015;28;20439;-85
2021/11/02 09:06:51;;;;;;;0.30;0.27;;;7.80;99.90;;;;;;5013466;28;20946;-84
2021/11/02 09:09:19;;;;;;;0.30;0.20;;;7.70;99.90;;;;;;5013281;28;20512;-84
2021/11/02 09:11:47;;;;;;;0.30;0.20;;;7.60;99.90;;;;;;5013644;28;20480;-83
2021/11/02 09:14:17;;;;;;;0.40;0.40;;;7.50;99.90;;;;;;5013275;28;20987;-83
2021/11/02 09:16:48;;;;;;;0.30;0.20;;;7.40;99.90;;;;;;5013622;28;20436;-83
2021/11/02 09:19:15;;;;;;;0.30;0.30;;;7.40;99.90;;;;;;5014255;28;20482;-83
2021/11/02 09:21:43;;;;;;;0.50;0.50;;;7.40;99.90;;;;;;5013295;28;20976;-83
2021/11/02 09:24:15;;;;;;;0.30;0.30;;;7.50;99.90;;;;;;5013305;28;20855;-83
2021/11/02 09:26:43;;;;;;;0.30;0.30;;;7.50;99.90;;;;;;5017000;28;20454;-83
2021/11/02 09:29:10;;;;;;;0.30;0.30;;;7.50;99.90;;;;;;5017382;28;20488;-83
2021/11/02 09:31:38;;;;;;;0.63;0.30;;;7.50;99.90;;;;;;5017373;28;20475;-83
2021/11/02 09:34:05;;;;;;;0.40;0.30;;;7.50;99.90;;;;;;5017172;28;20967;-84
2021/11/02 09:36:40;;;;;;;0.30;0.30;;;7.50;99.90;;;;;;5017614;28;20459;-83
2021/11/02 09:39:09;;;;;;;0.30;0.20;;;7.50;99.90;;;;;;5017241;28;20442;-83
2021/11/02 09:42:13;;;;;;;0.30;0.27;;;7.50;99.90;;;;;;5017238;28;20416;-82
2021/11/02 09:45:16;;;;;;;0.30;0.20;;;7.50;99.90;;;;;;5017034;28;20443;-84
2021/11/02 09:48:20;;;;;;;0.40;0.30;;;7.60;99.90;;;;;;5017284;28;20475;-83
2021/11/02 09:51:15;;;;;;;0.80;0.60;;;7.70;99.90;;;;;;5016832;28;20977;-84
2021/11/02 09:54:37;;;;;;;0.30;0.20;;;7.60;99.90;;;;;;5017236;28;20468;-83
2021/11/02 09:57:29;;;;;;;0.30;0.30;;;7.70;99.90;;;;;;4937387;29;20990;-82
2021/11/02 10:00:15;;;;;;;0.30;0.20;;;7.60;99.90;;;;;;4937256;29;20487;-83
2021/11/02 10:03:18;;;;;;;0.30;0.30;;;7.60;99.90;;;;;;4991839;28;20491;-84
2021/11/02 10:06:05;;;;;;;0.30;0.27;;;7.60;99.90;;;;;;4987504;28;20467;-84
2021/11/02 10:08:42;;;;;;;0.30;0.20;;;7.60;99.90;;;;;;4996806;28;20456;-88
2021/11/02 10:11:16;;;;;;;0.30;0.20;;;7.60;99.90;;;;;;4998017;28;20476;-87
2021/11/02 10:14:11;;;;;;;0.30;0.20;;;7.60;99.90;;;;;;4997529;28;20472;-87
2021/11/02 10:17:01;;;;;;;0.30;0.20;;;7.60;99.90;;;;;;4996627;28;20452;-86
2021/11/02 10:19:56;;;;;;;0.30;0.20;;;7.60;99.90;;;;;;4997518;28;20437;-89
2021/11/02 10:22:54;;;;;;;1.33;0.30;;;7.60;99.90;;;;;;4997267;28;20975;-88
2021/11/02 10:25:43;;;;;;;0.30;0.27;;;7.60;99.90;;;;;;4997650;28;20780;-88
2021/11/02 10:28:46;;;;;;;0.50;0.50;;;7.60;99.90;;;;;;4998057;28;20444;-88
2021/11/02 10:31:24;;;;;;;0.30;0.30;;;7.70;99.90;;;;;;4997669;28;20999;-87
2021/11/02 10:34:04;;;;;;;0.30;0.20;;;7.60;99.90;;;;;;4998086;28;20472;-88
2021/11/02 10:36:36;;;;;;;0.30;0.30;;;7.60;99.90;;;;;;4999736;28;20456;-88
2021/11/02 10:39:24;;;;;;;0.30;0.30;;;7.70;99.90;;;;;;4998941;28;20455;-89
2021/11/02 10:42:08;;;;;;;0.30;0.23;;;7.60;99.90;;;;;;4999245;28;20979;-88
2021/11/02 10:44:44;;;;;;;0.30;0.20;;;7.70;99.90;;;;;;5000890;28;20836;-89
2021/11/02 10:47:19;;;;;;;0.30;0.30;;;7.90;99.90;;;;;;5001478;28;20466;-89
2021/11/02 10:50:06;;;;;;;0.30;0.30;;;8.10;99.90;;;;;;5010391;28;20444;-89
2021/11/02 10:52:36;;;;;;;0.30;0.20;;;8.20;99.90;;;;;;4999529;28;20484;-89
2021/11/02 10:55:22;;;;;;;0.40;0.30;;;8.10;99.90;;;;;;4998300;28;20441;-80
2021/11/02 10:58:10;;;;;;;2.00;0.37;;;8.10;99.90;;;;;;4996931;28;20436;-87
2021/11/02 11:00:38;;;;;;;0.43;0.43;;;8.20;99.90;;;;;;5018086;28;20483;-86
2021/11/02 11:03:10;;;;;;;0.30;0.27;;;8.20;99.90;;;;;;5016539;28;20467;-86
2021/11/02 11:05:38;;;;;;;0.30;0.20;;;8.30;99.90;;;;;;5016298;28;20429;-87
2021/11/02 11:08:06;;;;;;;0.30;0.20;;;8.30;99.90;;;;;;5016543;28;20436;-87
2021/11/02 11:10:34;;;;;;;0.30;0.20;;;8.30;99.90;;;;;;5016452;28;20436;-85
2021/11/02 11:13:02;;;;;;;0.30;0.30;;;8.40;99.90;;;;;;5017042;28;20975;-87
2021/11/02 11:15:32;;;;;;;0.30;0.30;;;8.70;99.90;;;;;;5018083;28;20459;-85
2021/11/02 11:18:04;;;;;;;0.30;0.27;;;8.70;99.90;;;;;;5017437;28;20770;-83
2021/11/02 11:20:34;;;;;;;0.30;0.30;;;9.00;99.90;;;;;;5016007;28;20523;-83
2021/11/02 11:23:05;;;;;;;0.30;0.20;;;9.10;99.90;;;;;;5015545;28;20475;-85
2021/11/02 11:25:39;;;;;;;0.30;0.20;;;9.30;99.90;;;;;;5015611;28;20452;-87
2021/11/02 11:28:12;;;;;;;0.50;0.30;;;9.30;99.90;;;;;;5015398;28;20788;-86
2021/11/02 11:30:40;;;;;;;0.30;0.20;;;9.40;99.90;;;;;;5016782;28;20435;-86
2021/11/02 11:33:09;;;;;;;0.30;0.20;;;9.70;99.90;;;;;;5015406;28;20491;-86
2021/11/02 11:35:38;;;;;;;0.30;0.20;;;9.80;99.90;;;;;;5015500;28;20440;-85
2021/11/02 11:38:08;;;;;;;0.30;0.30;;;9.80;99.90;;;;;;5015295;28;20440;-85
2021/11/02 11:40:37;;;;;;;0.30;0.20;;;9.80;99.90;;;;;;5015001;28;20440;-85
2021/11/02 11:43:06;;;;;;;0.40;0.30;;;10.00;99.90;;;;;;5015027;28;20472;-85
2021/11/02 11:45:36;;;;;;;0.30;0.20;;;9.90;99.90;;;;;;5015385;28;20442;-83
2021/11/02 11:48:09;;;;;;;0.30;0.20;;;9.80;99.90;;;;;;5014475;28;20436;-85
2021/11/02 11:50:39;;;;;;;1.13;0.40;;;9.80;99.90;;;;;;5015582;28;20444;-85
2021/11/02 11:53:07;;;;;;;0.30;0.30;;;9.80;99.90;;;;;;5014901;28;20491;-83
2021/11/02 11:55:37;;;;;;;0.30;0.20;;;9.80;99.90;;;;;;5014881;28;20417;-86
2021/11/02 11:58:06;;;;;;;0.30;0.30;;;9.80;99.90;;;;;;5014988;28;20432;-84
2021/11/02 12:00:33;;;;;;;0.30;0.20;;;9.70;99.90;;;;;;5014450;28;20823;-85
2021/11/02 12:03:04;;;;;;;0.30;0.20;;;9.60;99.90;;;;;;5014831;28;20559;-85
2021/11/02 12:05:33;;;;;;;0.30;0.20;;;9.60;99.90;;;;;;5015133;28;20439;-85
2021/11/02 12:08:09;;;;;;;0.30;0.20;;;9.70;99.90;;;;;;5015258;28;20444;-86
2021/11/02 12:10:37;;;;;;;0.30;0.20;;;9.70;99.90;;;;;;5014978;28;20514;-85
2021/11/02 12:13:06;;;;;;;0.30;0.23;;;9.60;99.90;;;;;;5014506;28;20487;-85
2021/11/02 12:15:49;;;;;;;0.30;0.20;;;9.50;99.90;;;;;;5018513;28;20791;-83
2021/11/02 12:18:18;;;;;;;0.30;0.20;;;9.30;99.90;;;;;;5013550;28;20459;-85
2021/11/02 12:20:45;;;;;;;0.30;0.30;;;9.30;99.90;;;;;;5015282;28;20443;-84
2021/11/02 12:23:20;;;;;;;0.30;0.20;;;9.40;99.90;;;;;;5014384;28;20464;-84
2021/11/02 12:25:53;;;;;;;0.30;0.20;;;9.50;99.90;;;;;;5014037;28;20436;-83
2021/11/02 12:28:30;;;;;;;0.30;0.20;;;9.60;99.90;;;;;;5014377;28;20486;-84
2021/11/02 12:31:07;;;;;;;0.30;0.20;;;9.40;99.90;;;;;;5014318;28;20439;-84
2021/11/02 12:33:36;;;;;;;0.30;0.20;;;9.40;99.90;;;;;;5013915;28;21005;-84
2021/11/02 12:36:05;;;;;;;0.30;0.30;;;9.40;99.90;;;;;;5014306;28;20518;-85
2021/11/02 12:38:36;;;;;;;0.30;0.20;;;9.40;99.90;;;;;;5013950;28;20451;-84
2021/11/02 12:41:15;;;;;;;0.30;0.20;;;9.50;99.90;;;;;;5014215;28;20435;-84
2021/11/02 12:43:43;;;;;;;0.30;0.20;;;9.60;99.90;;;;;;5013885;28;20517;-86
2021/11/02 12:46:11;;;;;;;0.30;0.20;;;9.80;99.90;;;;;;5013830;28;20439;-83
2021/11/02 12:48:38;;;;;;;0.30;0.20;;;10.00;99.90;;;;;;5013937;28;20926;-89
2021/11/02 12:51:08;;;;;;;0.30;0.20;;;10.20;99.90;;;;;;5014695;28;20447;-84
2021/11/02 12:53:41;;;;;;;0.30;0.20;;;10.30;99.90;;;;;;5013496;28;20582;-84
2021/11/02 12:56:16;;;;;;;0.30;0.30;;;10.30;99.90;;;;;;5013659;28;20976;-85
2021/11/02 12:58:47;;;;;;;0.30;0.30;;;10.30;99.90;;;;;;5013774;28;20541;-84
2021/11/02 13:01:28;;;;;;;0.30;0.20;;;10.20;99.90;;;;;;5013811;28;20850;-85
2021/11/02 13:03:56;;;;;;;0.30;0.20;;;10.10;99.90;;;;;;5013472;28;20844;-82
2021/11/02 13:06:24;;;;;;;0.30;0.20;;;10.00;99.90;;;;;;5013591;28;20439;-84
2021/11/02 13:08:58;;;;;;;0.30;0.20;;;9.80;99.90;;;;;;5013790;28;20432;-84
2021/11/02 13:11:27;;;;;;;0.30;0.30;;;9.60;99.90;;;;;;5013723;28;20439;-84
2021/11/02 13:14:03;;;;;;;0.30;0.20;;;9.50;99.90;;;;;;5013323;28;20486;-85
2021/11/02 13:16:32;;;;;;;0.30;0.20;;;9.40;99.90;;;;;;5013900;28;20416;-85
2021/11/02 13:18:59;;;;;;;0.30;0.30;;;9.30;99.90;;;;;;5013820;28;20444;-85
2021/11/02 13:21:34;;;;;;;0.30;0.20;;;9.20;99.90;;;;;;5014131;28;20955;-83
2021/11/02 13:24:13;;;;;;;0.30;0.20;;;9.20;99.90;;;;;;5013291;28;20508;-85
2021/11/02 13:26:42;;;;;;;0.30;0.20;;;9.30;99.90;;;;;;5013307;28;20440;-85
2021/11/02 13:29:11;;;;;;;0.30;0.20;;;9.20;99.90;;;;;;5013617;28;20416;-84
2021/11/02 13:31:38;;;;;;;0.30;0.20;;;9.20;99.90;;;;;;5013685;28;20440;-84
2021/11/02 13:34:07;;;;;;;0.30;0.20;;;9.20;99.90;;;;;;5013543;28;20467;-84
2021/11/02 13:36:35;;;;;;;0.30;0.20;;;9.20;99.90;;;;;;5013254;28;20785;-84
2021/11/02 13:39:05;;;;;;;0.30;0.20;;;9.10;99.90;;;;;;5013416;28;20531;-84
2021/11/02 13:41:33;;;;;;;0.30;0.20;;;9.00;99.90;;;;;;5013292;28;20815;-84
2021/11/02 13:44:04;;;;;;;0.30;0.20;;;8.90;99.90;;;;;;5013329;28;20539;-84
2021/11/02 13:46:33;;;;;;;0.30;0.20;;;8.80;99.90;;;;;;5013425;28;20439;-84
2021/11/02 13:49:00;;;;;;;0.30;0.20;;;8.80;99.90;;;;;;5013305;28;20911;-85
2021/11/02 13:51:28;;;;;;;0.30;0.20;;;8.80;99.90;;;;;;5013708;28;20946;-88
2021/11/02 13:53:55;;;;;;;0.30;0.20;;;8.80;99.90;;;;;;5013165;28;20894;-85
2021/11/02 13:56:26;;;;;;;0.30;0.20;;;8.90;99.90;;;;;;5013416;28;20757;-83
2021/11/02 13:58:53;;;;;;;0.30;0.20;;;8.90;99.90;;;;;;5013250;28;20849;-84
2021/11/02 14:01:25;;;;;;;0.30;0.20;;;9.00;99.90;;;;;;5012951;28;20439;-84
2021/11/02 14:03:59;;;;;;;0.30;0.27;;;9.10;99.90;;;;;;5013198;28;20483;-84
2021/11/02 14:06:27;;;;;;;0.53;0.53;;;9.30;99.90;;;;;;5012933;28;20448;-82
2021/11/02 14:08:57;;;;;;;0.30;0.20;;;9.30;99.90;;;;;;5013270;28;20432;-83
2021/11/02 14:11:31;;;;;;;0.30;0.20;;;9.20;99.90;;;;;;5013939;28;20435;-83
2021/11/02 14:13:58;;;;;;;0.30;0.20;;;9.20;99.90;;;;;;5016687;28;20490;-83
2021/11/02 14:16:41;;;;;;;0.30;0.20;;;9.10;99.90;;;;;;5016800;28;20440;-83
2021/11/02 14:19:40;;;;;;;0.30;0.20;;;9.00;99.90;;;;;;5016782;28;20795;-84
2021/11/02 14:22:08;;;;;;;0.30;0.20;;;8.90;99.90;;;;;;5016601;28;20474;-83
2021/11/02 14:24:41;;;;;;;0.30;0.30;;;8.90;99.90;;;;;;5017350;28;20432;-81
2021/11/02 14:27:11;;;;;;;0.30;0.20;;;8.80;99.90;;;;;;5016742;28;20518;-83
2021/11/02 14:29:54;;;;;;;0.30;0.20;;;8.80;99.90;;;;;;5016623;28;20432;-83
2021/11/02 14:32:47;;;;;;;0.30;0.20;;;8.90;99.90;;;;;;5016143;28;21013;-82
2021/11/02 14:35:46;;;;;;;0.30;0.20;;;8.90;99.90;;;;;;5016496;28;20432;-83
2021/11/02 14:38:15;;;;;;;0.30;0.20;;;8.80;99.90;;;;;;5016134;28;20458;-82
2021/11/02 14:40:42;;;;;;;0.30;0.20;;;8.90;99.90;;;;;;5016158;28;20432;-82
2021/11/02 14:43:25;;;;;;;0.30;0.20;;;8.90;99.90;;;;;;5016276;28;20471;-82
2021/11/02 14:45:53;;;;;;;0.30;0.20;;;8.70;99.90;;;;;;5016309;28;20455;-82
2021/11/02 14:48:33;;;;;;;0.30;0.20;;;8.70;99.90;;;;;;5015975;28;20443;-82
2021/11/02 14:51:00;;;;;;;0.30;0.20;;;8.60;99.90;;;;;;5016112;28;20468;-81
2021/11/02 14:53:31;;;;;;;0.30;0.20;;;8.60;99.90;;;;;;5016060;28;20515;-83
2021/11/02 14:56:00;;;;;;;0.30;0.20;;;8.60;99.90;;;;;;5016661;28;20432;-83
2021/11/02 14:58:46;;;;;;;0.30;0.20;;;8.60;99.90;;;;;;5015647;28;20463;-83
2021/11/02 15:01:16;;;;;;;0.30;0.20;;;8.60;99.90;;;;;;5012957;28;20429;-83
2021/11/02 15:03:49;;;;;;;0.30;0.20;;;8.50;99.90;;;;;;5009835;28;20467;-83
2021/11/02 15:06:16;;;;;;;0.30;0.20;;;8.40;99.90;;;;;;5015850;28;20440;-83
2021/11/02 15:08:45;;;;;;;0.30;0.20;;;8.40;99.90;;;;;;5015780;28;20606;-83
2021/11/02 15:11:13;;;;;;;0.30;0.30;;;8.30;99.90;;;;;;5015495;28;20843;-82
2021/11/02 15:13:46;;;;;;;0.30;0.30;;;8.20;99.90;;;;;;5015159;28;20490;-83
2021/11/02 15:16:14;;;;;;;0.30;0.20;;;8.20;99.90;;;;;;5015734;28;20432;-83
2021/11/02 15:18:44;;;;;;;0.30;0.20;;;8.10;99.90;;;;;;5015613;28;20416;-82
2021/11/02 15:21:14;;;;;;;0.30;0.20;;;8.10;99.90;;;;;;5015584;28;20958;-82
2021/11/02 15:23:49;;;;;;;0.30;0.23;;;8.10;99.90;;;;;;5014271;28;20472;-81
2021/11/02 15:26:17;;;;;;;0.30;0.30;;;8.10;99.90;;;;;;5016049;28;20435;-81
2021/11/02 15:28:45;;;;;;;0.30;0.20;;;8.10;99.90;;;;;;5015778;28;20423;-81
2021/11/02 15:31:15;;;;;;;0.30;0.30;;;8.10;99.90;;;;;;5015087;28;20451;-82
2021/11/02 15:33:43;;;;;;;0.30;0.30;;;8.00;99.90;;;;;;5015224;28;20483;-83
2021/11/02 15:36:18;;;;;;;0.30;0.30;;;8.00;99.90;;;;;;5014960;28;21002;-83
2021/11/02 15:38:55;;;;;;;0.30;0.20;;;7.80;99.90;;;;;;5015539;28;20454;-83
2021/11/02 15:41:24;;;;;;;0.30;0.20;;;7.70;99.90;;;;;;5015055;28;20884;-84
2021/11/02 15:43:57;;;;;;;0.30;0.20;;;7.70;99.90;;;;;;5014440;28;20466;-83
2021/11/02 15:46:33;;;;;;;0.30;0.20;;;7.60;99.90;;;;;;5014345;28;20971;-84
2021/11/02 15:49:03;;;;;;;0.30;0.20;;;7.50;99.90;;;;;;5015125;28;20436;-83
2021/11/02 15:51:33;;;;;;;0.30;0.30;;;7.40;99.90;;;;;;5014979;28;20448;-84
2021/11/02 15:54:00;;;;;;;0.30;0.30;;;7.40;99.90;;;;;;5015317;28;20533;-84
2021/11/02 15:56:28;;;;;;;0.30;0.20;;;7.40;99.90;;;;;;5015645;28;20810;-84
2021/11/02 15:59:00;;;;;;;0.30;0.30;;;7.40;99.90;;;;;;5014541;28;20480;-84
2021/11/02 16:01:42;;;;;;;0.60;0.60;;;7.40;99.90;;;;;;5014694;28;20405;-84
2021/11/02 16:04:20;;;;;;;0.30;0.20;;;7.30;99.90;;;;;;5014803;28;20482;-84
2021/11/02 16:07:01;;;;;;;0.50;0.33;;;7.30;99.90;;;;;;5014419;28;20458;-84
2021/11/02 16:09:45;;;;;;;0.30;0.20;;;7.30;99.90;;;;;;5014777;28;20520;-84
2021/11/02 16:12:13;;;;;;;0.30;0.30;;;7.30;99.90;;;;;;5014598;28;20416;-84
2021/11/02 16:14:49;;;;;;;0.30;0.30;;;7.30;99.90;;;;;;5014324;28;20841;-84
2021/11/02 16:17:18;;;;;;;0.30;0.30;;;7.30;99.90;;;;;;5014634;28;20439;-84
2021/11/02 16:19:45;;;;;;;0.30;0.30;;;7.30;99.90;;;;;;5014304;28;20447;-84
2021/11/02 16:22:12;;;;;;;0.40;0.30;;;7.30;99.90;;;;;;5014427;28;20455;-84
2021/11/02 16:24:39;;;;;;;0.30;0.20;;;7.30;99.90;;;;;;5014477;28;20451;-84
2021/11/02 16:27:21;;;;;;;0.30;0.20;;;7.40;99.90;;;;;;5014103;28;20826;-84
2021/11/02 16:29:49;;;;;;;0.40;0.30;;;7.40;99.90;;;;;;5014644;28;20440;-84
2021/11/02 16:32:22;;;;;;;0.30;0.20;;;7.40;99.90;;;;;;5014234;28;20460;-84
2021/11/02 16:34:49;;;;;;;0.30;0.20;;;7.40;99.90;;;;;;5013493;28;20827;-84
2021/11/02 16:37:29;;;;;;;0.30;0.20;;;7.40;99.90;;;;;;5014239;28;20447;-83
2021/11/02 16:40:18;;;;;;;0.37;0.30;;;7.50;99.90;;;;;;5014188;28;20445;-83
2021/11/02 16:42:52;;;;;;;0.43;0.37;;;7.40;99.90;;;;;;5014052;28;20471;-83
2021/11/02 16:45:19;;;;;;;0.30;0.20;;;7.50;99.90;;;;;;5014161;28;20446;-83
2021/11/02 16:47:54;;;;;;;0.30;0.30;;;7.50;99.90;;;;;;5013968;28;20447;-83
2021/11/02 16:50:27;;;;;;;0.87;0.30;;;7.50;99.90;;;;;;5014048;28;20439;-83
2021/11/02 16:52:54;;;;;;;0.30;0.20;;;7.60;99.90;;;;;;5013846;28;20525;-83
2021/11/02 16:55:20;;;;;;;0.30;0.20;;;7.50;99.90;;;;;;5013679;28;20440;-84
2021/11/02 16:57:47;;;;;;;0.80;0.30;;;7.50;99.90;;;;;;5013613;28;20947;-84
2021/11/02 17:00:16;;;;;;;0.30;0.30;;;7.50;99.90;;;;;;5013599;28;20483;-84
2021/11/02 17:02:44;;;;;;;0.30;0.20;;;7.40;99.90;;;;;;5013799;28;20471;-83
2021/11/02 17:05:15;;;;;;;0.30;0.20;;;7.40;99.90;;;;;;5013628;28;20810;-83
2021/11/02 17:07:43;;;;;;;0.30;0.30;;;7.30;99.90;;;;;;5013566;28;20907;-84
2021/11/02 17:10:35;;;;;;;0.30;0.30;;;7.30;99.90;;;;;;5013795;28;20443;-84
2021/11/02 17:13:05;;;;;;;0.43;0.43;;;7.20;99.90;;;;;;5008849;28;20550;-84
2021/11/02 17:15:34;;;;;;;0.30;0.20;;;7.20;99.90;;;;;;5013425;28;20431;-84
2021/11/02 17:18:03;;;;;;;0.30;0.20;;;7.20;99.90;;;;;;5013628;28;20517;-84
2021/11/02 17:20:32;;;;;;;0.50;0.40;;;7.20;99.90;;;;;;5013396;28;20432;-84
2021/11/02 17:22:59;;;;;;;0.30;0.30;;;7.20;99.90;;;;;;5013503;28;20476;-84
2021/11/02 17:25:28;;;;;;;0.30;0.30;;;7.20;99.90;;;;;;5013575;28;20446;-84
2021/11/02 17:27:56;;;;;;;0.30;0.20;;;7.20;99.90;;;;;;5013240;28;21021;-84
2021/11/02 17:30:24;;;;;;;0.30;0.20;;;7.20;99.90;;;;;;5013540;28;20448;-84
2021/11/02 17:32:53;;;;;;;0.50;0.50;;;7.20;99.90;;;;;;5013451;28;20490;-84
2021/11/02 17:35:20;;;;;;;0.30;0.20;;;7.10;99.90;;;;;;5013517;28;20699;-84
2021/11/02 17:37:51;;;;;;;2.87;0.30;;;7.20;99.90;;;;;;5013378;28;20443;-84
2021/11/02 17:40:20;;;;;;;0.30;0.20;;;7.10;99.90;;;;;;5013543;28;20443;-84